PIA453 OPLA-OPSD
Flight info
| Callsign | PIA453 |
|---|---|
| Flight time | N/A |
| Altitude | 32000 |
| Route | AKBER1D AKBER DCT MATIN DCT ISDUR DCT RN DCT KAGLO J186 KAPMI J154 BUNGI DCT DELDA DCT BIREB DCT SD DCT |
| Aircraft | A320/M-SDE3FGHIRWY/LB1 |
Departure
| Time | 2026-05-05 18:07 |
|---|---|
| Airport | Allama Iqbal International Airport (OPLA) |
Arrival
| Time | N/A |
|---|---|
| Airport | Skardu International Airport (OPSD) |
| Time | Latitude | Longitude | Altitude | Speed | Heading |
|---|---|---|---|---|---|
| 2026-05-05 17:51 | 31.51981 | 74.40754 | 722 ft | 0 kts | 270° |
| 2026-05-05 17:56 | 31.51981 | 74.40768 | 724 ft | 4 kts | 269° |
| 2026-05-05 17:57 | 31.51982 | 74.40800 | 722 ft | 4 kts | 263° |
| 2026-05-05 17:57 | 31.51988 | 74.40830 | 721 ft | 4 kts | 239° |
| 2026-05-05 17:57 | 31.52002 | 74.40844 | 723 ft | 1 kts | 180° |
| 2026-05-05 17:59 | 31.51998 | 74.40844 | 723 ft | 1 kts | 180° |
| 2026-05-05 17:59 | 31.51992 | 74.40844 | 722 ft | 2 kts | 180° |
| 2026-05-05 18:00 | 31.51965 | 74.40844 | 722 ft | 6 kts | 180° |
| 2026-05-05 18:00 | 31.51912 | 74.40844 | 723 ft | 9 kts | 180° |
| 2026-05-05 18:00 | 31.51833 | 74.40844 | 722 ft | 13 kts | 180° |
| 2026-05-05 18:00 | 31.51731 | 74.40827 | 722 ft | 16 kts | 224° |
| 2026-05-05 18:01 | 31.51711 | 74.40743 | 722 ft | 0 kts | 266° |
| 2026-05-05 18:02 | 31.51710 | 74.40731 | 722 ft | 2 kts | 266° |
| 2026-05-05 18:02 | 31.51709 | 74.40718 | 722 ft | 1 kts | 265° |
| 2026-05-05 18:02 | 31.51709 | 74.40709 | 722 ft | 4 kts | 265° |
| 2026-05-05 18:03 | 31.51675 | 74.40662 | 722 ft | 9 kts | 194° |
| 2026-05-05 18:03 | 31.51604 | 74.40659 | 722 ft | 13 kts | 180° |
| 2026-05-05 18:03 | 31.51491 | 74.40657 | 723 ft | 19 kts | 182° |
| 2026-05-05 18:03 | 31.51342 | 74.40654 | 721 ft | 23 kts | 181° |
| 2026-05-05 18:04 | 31.51179 | 74.40650 | 723 ft | 24 kts | 181° |
| 2026-05-05 18:04 | 31.51008 | 74.40648 | 721 ft | 25 kts | 180° |
| 2026-05-05 18:04 | 31.50841 | 74.40644 | 721 ft | 15 kts | 181° |
| 2026-05-05 18:04 | 31.50749 | 74.40612 | 722 ft | 13 kts | 221° |
| 2026-05-05 18:05 | 31.50692 | 74.40541 | 723 ft | 11 kts | 229° |
| 2026-05-05 18:05 | 31.50664 | 74.40472 | 722 ft | 9 kts | 250° |
| 2026-05-05 18:05 | 31.50681 | 74.40430 | 722 ft | 6 kts | 354° |
| 2026-05-05 18:05 | 31.50716 | 74.40431 | 724 ft | 4 kts | 2° |
| 2026-05-05 18:06 | 31.50742 | 74.40433 | 722 ft | 3 kts | 2° |
| 2026-05-05 18:06 | 31.50754 | 74.40433 | 725 ft | 2 kts | 2° |
| 2026-05-05 18:06 | 31.50998 | 74.40439 | 723 ft | 76 kts | 1° |
| 2026-05-05 18:06 | 31.51800 | 74.40452 | 724 ft | 152 kts | 0° |
| 2026-05-05 18:07 | 31.53025 | 74.40467 | 1015 ft | 187 kts | 0° |
| 2026-05-05 18:07 | 31.54329 | 74.40505 | 1967 ft | 186 kts | 2° |
| 2026-05-05 18:07 | 31.55639 | 74.40516 | 2878 ft | 194 kts | 353° |
| 2026-05-05 18:07 | 31.56934 | 74.39818 | 3463 ft | 221 kts | 322° |
| 2026-05-05 18:08 | 31.58154 | 74.38561 | 4178 ft | 246 kts | 316° |
| 2026-05-05 18:08 | 31.59426 | 74.37114 | 4980 ft | 266 kts | 315° |
| 2026-05-05 18:08 | 31.60772 | 74.35565 | 6125 ft | 273 kts | 315° |
| 2026-05-05 18:08 | 31.62157 | 74.34000 | 7322 ft | 277 kts | 316° |
| 2026-05-05 18:09 | 31.63566 | 74.32439 | 8568 ft | 279 kts | 317° |
| 2026-05-05 18:09 | 31.64987 | 74.30891 | 9818 ft | 282 kts | 317° |
| 2026-05-05 18:09 | 31.66491 | 74.29268 | 10460 ft | 306 kts | 317° |
| 2026-05-05 18:09 | 31.68144 | 74.27495 | 10753 ft | 337 kts | 318° |
| 2026-05-05 18:10 | 31.69908 | 74.25609 | 11429 ft | 347 kts | 318° |
| 2026-05-05 18:10 | 31.71713 | 74.23684 | 12377 ft | 350 kts | 318° |
| 2026-05-05 18:10 | 31.73518 | 74.21759 | 13431 ft | 351 kts | 318° |
| 2026-05-05 18:10 | 31.75335 | 74.19816 | 14417 ft | 353 kts | 318° |
| 2026-05-05 18:11 | 31.77139 | 74.17882 | 15257 ft | 357 kts | 318° |
| 2026-05-05 18:11 | 31.78986 | 74.15902 | 16049 ft | 362 kts | 318° |
| 2026-05-05 18:11 | 31.80859 | 74.13894 | 16808 ft | 366 kts | 318° |
| 2026-05-05 18:11 | 31.82761 | 74.11855 | 17538 ft | 371 kts | 318° |
| 2026-05-05 18:12 | 31.84683 | 74.09803 | 18238 ft | 375 kts | 319° |
| 2026-05-05 18:12 | 31.86677 | 74.07797 | 18839 ft | 379 kts | 321° |
| 2026-05-05 18:12 | 31.88747 | 74.05842 | 19405 ft | 383 kts | 322° |
| 2026-05-05 18:12 | 31.90870 | 74.03904 | 19944 ft | 387 kts | 322° |
| 2026-05-05 18:13 | 31.93002 | 74.01998 | 20453 ft | 391 kts | 325° |
| 2026-05-05 18:13 | 31.95368 | 74.00383 | 20928 ft | 395 kts | 334° |
| 2026-05-05 18:13 | 31.97876 | 73.98991 | 21421 ft | 397 kts | 334° |
| 2026-05-05 18:13 | 32.00349 | 73.97597 | 21878 ft | 400 kts | 334° |
| 2026-05-05 18:14 | 32.02861 | 73.96164 | 22326 ft | 403 kts | 334° |
| 2026-05-05 18:14 | 32.05402 | 73.94705 | 22750 ft | 405 kts | 334° |
| 2026-05-05 18:14 | 32.07943 | 73.93239 | 23153 ft | 408 kts | 334° |
| 2026-05-05 18:14 | 32.10506 | 73.91761 | 23533 ft | 411 kts | 334° |
| 2026-05-05 18:15 | 32.13074 | 73.90282 | 23866 ft | 413 kts | 334° |
| 2026-05-05 18:15 | 32.15669 | 73.88787 | 24207 ft | 415 kts | 334° |
| 2026-05-05 18:15 | 32.18249 | 73.87305 | 24544 ft | 416 kts | 334° |
| 2026-05-05 18:15 | 32.20867 | 73.85806 | 24872 ft | 417 kts | 334° |
| 2026-05-05 18:16 | 32.23492 | 73.84303 | 25201 ft | 419 kts | 334° |
| 2026-05-05 18:16 | 32.26125 | 73.82792 | 25521 ft | 420 kts | 333° |
| 2026-05-05 18:16 | 32.28752 | 73.81281 | 25829 ft | 422 kts | 333° |
| 2026-05-05 18:16 | 32.31397 | 73.79758 | 26135 ft | 423 kts | 333° |
| 2026-05-05 18:17 | 32.34053 | 73.78227 | 26419 ft | 425 kts | 333° |
| 2026-05-05 18:17 | 32.36714 | 73.76692 | 26730 ft | 426 kts | 333° |
| 2026-05-05 18:17 | 32.39389 | 73.75144 | 26964 ft | 429 kts | 333° |
| 2026-05-05 18:17 | 32.42070 | 73.73593 | 27220 ft | 431 kts | 333° |
| 2026-05-05 18:18 | 32.44777 | 73.72030 | 27472 ft | 432 kts | 333° |
| 2026-05-05 18:18 | 32.47487 | 73.70464 | 27733 ft | 433 kts | 333° |
| 2026-05-05 18:18 | 32.50183 | 73.68904 | 27980 ft | 435 kts | 333° |
| 2026-05-05 18:18 | 32.52909 | 73.67330 | 28217 ft | 436 kts | 333° |
| 2026-05-05 18:19 | 32.55597 | 73.65775 | 28444 ft | 437 kts | 333° |
| 2026-05-05 18:19 | 32.58334 | 73.64190 | 28643 ft | 438 kts | 333° |
| 2026-05-05 18:19 | 32.61066 | 73.62608 | 28905 ft | 437 kts | 333° |
| 2026-05-05 18:19 | 32.63810 | 73.61014 | 29092 ft | 437 kts | 333° |
| 2026-05-05 18:20 | 32.66545 | 73.59424 | 29281 ft | 438 kts | 333° |
| 2026-05-05 18:20 | 32.68359 | 73.58368 | 29445 ft | 437 kts | 333° |
| 2026-05-05 18:20 | 32.72009 | 73.56242 | 29789 ft | 436 kts | 333° |
| 2026-05-05 18:20 | 32.74723 | 73.54663 | 30033 ft | 435 kts | 333° |
| 2026-05-05 18:21 | 32.77454 | 73.53073 | 30246 ft | 434 kts | 333° |
| 2026-05-05 18:21 | 32.80153 | 73.51503 | 30452 ft | 433 kts | 333° |
| 2026-05-05 18:21 | 32.82857 | 73.49931 | 30658 ft | 432 kts | 333° |
| 2026-05-05 18:21 | 32.85560 | 73.48356 | 30864 ft | 431 kts | 333° |
| 2026-05-05 18:22 | 32.88224 | 73.46801 | 31068 ft | 430 kts | 333° |
| 2026-05-05 18:22 | 32.90893 | 73.45239 | 31297 ft | 429 kts | 333° |
| 2026-05-05 18:22 | 32.93571 | 73.43676 | 31500 ft | 428 kts | 333° |
| 2026-05-05 18:22 | 32.96255 | 73.42112 | 31710 ft | 428 kts | 333° |
| 2026-05-05 18:23 | 32.98031 | 73.41077 | 31845 ft | 427 kts | 333° |
| 2026-05-05 18:23 | 33.04214 | 73.37454 | 31930 ft | 424 kts | 332° |
| 2026-05-05 18:24 | 33.08607 | 73.34872 | 31963 ft | 423 kts | 333° |
| 2026-05-05 18:24 | 33.13905 | 73.31758 | 31941 ft | 425 kts | 333° |
| 2026-05-05 18:25 | 33.19219 | 73.28634 | 31943 ft | 423 kts | 333° |
| 2026-05-05 18:25 | 33.25348 | 73.25019 | 31937 ft | 422 kts | 332° |
| 2026-05-05 18:26 | 33.29757 | 73.22419 | 31945 ft | 421 kts | 333° |
| 2026-05-05 18:26 | 33.34987 | 73.19335 | 31951 ft | 422 kts | 333° |
| 2026-05-05 18:27 | 33.40313 | 73.16377 | 31951 ft | 423 kts | 340° |
| 2026-05-05 18:27 | 33.46117 | 73.15009 | 31946 ft | 425 kts | 349° |
| 2026-05-05 18:28 | 33.54914 | 73.13539 | 31954 ft | 425 kts | 349° |
| 2026-05-05 18:28 | 33.60804 | 73.13000 | 31980 ft | 429 kts | 1° |
| 2026-05-05 18:29 | 33.66682 | 73.14408 | 31972 ft | 433 kts | 10° |
| 2026-05-05 18:29 | 33.72529 | 73.16165 | 31978 ft | 434 kts | 10° |
| 2026-05-05 18:30 | 33.77753 | 73.17729 | 31985 ft | 434 kts | 10° |
| 2026-05-05 18:30 | 33.83628 | 73.19491 | 31998 ft | 434 kts | 10° |
| 2026-05-05 18:31 | 33.89322 | 73.22087 | 32007 ft | 440 kts | 20° |
| 2026-05-05 18:31 | 33.94869 | 73.25163 | 32028 ft | 441 kts | 20° |
| 2026-05-05 18:32 | 34.00408 | 73.28253 | 32036 ft | 440 kts | 20° |
| 2026-05-05 18:32 | 34.05972 | 73.31356 | 32044 ft | 441 kts | 20° |
| 2026-05-05 18:33 | 34.11501 | 73.34438 | 32310 ft | 445 kts | 24° |
| 2026-05-05 18:33 | 34.14333 | 73.36015 | 32111 ft | 451 kts | 25° |
| 2026-05-05 18:33 | 34.17202 | 73.37610 | 31993 ft | 454 kts | 25° |
| 2026-05-05 18:34 | 34.19907 | 73.39117 | 31815 ft | 451 kts | 21° |
| 2026-05-05 18:34 | 34.22751 | 73.40706 | 32016 ft | 448 kts | 21° |
| 2026-05-05 18:34 | 34.28383 | 73.43861 | 32087 ft | 446 kts | 21° |
| 2026-05-05 18:35 | 34.33996 | 73.47002 | 32092 ft | 445 kts | 21° |
| 2026-05-05 18:35 | 34.39616 | 73.50156 | 32089 ft | 445 kts | 21° |
| 2026-05-05 18:36 | 34.45254 | 73.53326 | 32133 ft | 446 kts | 21° |
| 2026-05-05 18:36 | 34.50879 | 73.56485 | 32130 ft | 445 kts | 21° |
| 2026-05-05 18:37 | 34.56477 | 73.59639 | 32145 ft | 445 kts | 21° |
| 2026-05-05 18:37 | 34.62108 | 73.62822 | 32146 ft | 446 kts | 21° |
| 2026-05-05 18:38 | 34.67732 | 73.66008 | 32204 ft | 446 kts | 22° |
| 2026-05-05 18:38 | 34.73373 | 73.69207 | 32189 ft | 448 kts | 22° |
| 2026-05-05 18:39 | 34.78949 | 73.72638 | 32196 ft | 453 kts | 33° |
| 2026-05-05 18:39 | 34.83670 | 73.77724 | 32213 ft | 457 kts | 39° |
| 2026-05-05 18:40 | 34.88177 | 73.82808 | 32232 ft | 457 kts | 39° |
| 2026-05-05 18:40 | 34.92836 | 73.88096 | 32242 ft | 457 kts | 39° |
| 2026-05-05 18:41 | 34.97513 | 73.93385 | 32238 ft | 456 kts | 39° |
| 2026-05-05 18:41 | 35.02173 | 73.98638 | 32211 ft | 456 kts | 39° |
| 2026-05-05 18:42 | 35.06834 | 74.03899 | 32237 ft | 456 kts | 39° |
| 2026-05-05 18:42 | 35.11451 | 74.09147 | 32209 ft | 456 kts | 39° |
| 2026-05-05 18:43 | 35.16101 | 74.14440 | 32200 ft | 456 kts | 39° |
| 2026-05-05 18:43 | 35.20762 | 74.19754 | 32205 ft | 456 kts | 39° |
| 2026-05-05 18:44 | 35.25383 | 74.25011 | 32210 ft | 456 kts | 40° |
| 2026-05-05 18:44 | 35.30018 | 74.30304 | 32203 ft | 456 kts | 40° |
| 2026-05-05 18:45 | 35.34660 | 74.35622 | 32198 ft | 456 kts | 40° |
| 2026-05-05 18:45 | 35.39283 | 74.40918 | 32222 ft | 456 kts | 41° |
| 2026-05-05 18:46 | 35.43922 | 74.46239 | 32199 ft | 457 kts | 41° |
| 2026-05-05 18:46 | 35.48564 | 74.51586 | 32205 ft | 458 kts | 41° |